Time;durP1;ratioP1;P1;durP2;ratioP2;P2;SDS_P1;SDS_P2;PMS_P1;PMS_P2;Temp;Humidity;BMP_temperature;BMP_pressure;BME280_temperature;BME280_humidity;BME280_pressure;Samples;Min_cycle;Max_cycle;Signal;HPM_P1;HPM_P2
2022/04/06 00:01:20;;;;;;;2.20;1.70;;;6.90;99.90;;;;;;5004518;28;20459;-59
2022/04/06 00:03:46;;;;;;;1.80;1.70;;;6.90;99.90;;;;;;4997958;28;20366;-59
2022/04/06 00:06:11;;;;;;;1.60;1.50;;;6.90;99.90;;;;;;5001510;28;20215;-59
2022/04/06 00:08:37;;;;;;;3.23;2.17;;;6.90;99.90;;;;;;5008123;28;20180;-60
2022/04/06 00:11:03;;;;;;;3.67;2.30;;;6.90;99.90;;;;;;5006024;28;20179;-59
2022/04/06 00:13:29;;;;;;;2.50;2.30;;;6.90;99.90;;;;;;5009999;28;20208;-59
2022/04/06 00:15:55;;;;;;;3.40;2.17;;;6.90;99.90;;;;;;5007773;28;20736;-59
2022/04/06 00:18:20;;;;;;;2.43;2.23;;;6.90;99.90;;;;;;5008559;28;20438;-59
2022/04/06 00:20:46;;;;;;;2.80;2.20;;;6.90;99.90;;;;;;5012655;28;20579;-59
2022/04/06 00:23:12;;;;;;;7.03;2.10;;;6.90;99.90;;;;;;4995863;28;20756;-59
2022/04/06 00:25:38;;;;;;;3.03;2.07;;;7.00;99.90;;;;;;5008800;28;20180;-59
2022/04/06 00:28:03;;;;;;;2.73;2.10;;;7.00;99.90;;;;;;5014516;28;20181;-59
2022/04/06 00:30:29;;;;;;;2.37;1.90;;;7.00;99.90;;;;;;5003036;28;20193;-60
2022/04/06 00:32:55;;;;;;;1.73;1.57;;;7.10;99.90;;;;;;5005382;28;20184;-59
2022/04/06 00:35:29;;;;;;;2.20;2.00;;;7.10;99.90;;;;;;5008618;28;20194;-60
2022/04/06 00:38:06;;;;;;;2.40;1.90;;;7.20;99.90;;;;;;5012340;28;20183;-59
2022/04/06 00:40:33;;;;;;;1.77;1.67;;;7.20;99.90;;;;;;4988908;28;20533;-59
2022/04/06 00:43:00;;;;;;;2.13;1.77;;;7.30;99.90;;;;;;5011954;28;20428;-59
2022/04/06 00:45:26;;;;;;;2.03;1.87;;;7.30;99.90;;;;;;4993418;28;20427;-59
2022/04/06 00:47:53;;;;;;;3.40;2.03;;;7.40;99.90;;;;;;5007576;28;20438;-59
2022/04/06 00:50:20;;;;;;;2.23;1.87;;;7.40;99.90;;;;;;5002202;28;20435;-59
2022/04/06 00:52:48;;;;;;;1.70;1.60;;;7.40;99.90;;;;;;5009570;28;20772;-60
2022/04/06 00:55:15;;;;;;;1.80;1.70;;;7.40;99.90;;;;;;5005064;28;20435;-58
2022/04/06 00:57:41;;;;;;;1.83;1.73;;;7.40;99.90;;;;;;5004771;28;20498;-60
2022/04/06 01:00:11;;;;;;;3.63;1.70;;;7.40;99.90;;;;;;5012704;28;20491;-60
2022/04/06 01:02:37;;;;;;;2.17;1.80;;;7.50;99.90;;;;;;5001218;28;20276;-60
2022/04/06 01:05:03;;;;;;;2.57;1.97;;;7.40;99.90;;;;;;5005740;28;20571;-59
2022/04/06 01:07:29;;;;;;;3.50;2.03;;;7.50;99.90;;;;;;5006678;28;20677;-59
2022/04/06 01:09:55;;;;;;;1.80;1.70;;;7.50;99.90;;;;;;4985812;28;20450;-60
2022/04/06 01:12:22;;;;;;;3.00;2.17;;;7.40;99.90;;;;;;5009872;28;20435;-60
2022/04/06 01:14:47;;;;;;;2.20;2.00;;;7.40;99.90;;;;;;4992208;28;20650;-59
2022/04/06 01:17:13;;;;;;;2.30;2.10;;;7.40;99.90;;;;;;5001610;28;20451;-59
2022/04/06 01:19:51;;;;;;;2.10;1.90;;;7.40;99.90;;;;;;5008675;28;20299;-60
2022/04/06 01:22:19;;;;;;;2.57;2.20;;;7.40;99.90;;;;;;5009133;28;20168;-59
2022/04/06 01:24:47;;;;;;;2.10;1.90;;;7.40;99.90;;;;;;5004996;28;20435;-59
2022/04/06 01:27:14;;;;;;;2.00;1.80;;;7.40;99.90;;;;;;5001721;28;20463;-59
2022/04/06 01:29:40;;;;;;;3.67;2.80;;;7.30;99.90;;;;;;5008684;28;21167;-59
2022/04/06 01:32:22;;;;;;;2.57;2.37;;;7.30;99.90;;;;;;4989432;28;21091;-59
2022/04/06 01:34:49;;;;;;;2.70;2.50;;;7.30;99.90;;;;;;5011191;28;20416;-59
2022/04/06 01:37:16;;;;;;;4.77;2.60;;;7.40;99.90;;;;;;5011106;28;20971;-59
2022/04/06 01:39:44;;;;;;;2.60;2.30;;;7.40;99.90;;;;;;5008698;28;20442;-60
2022/04/06 01:42:11;;;;;;;2.93;2.63;;;7.40;99.90;;;;;;4985450;28;20745;-59
2022/04/06 01:44:37;;;;;;;2.40;2.20;;;7.40;99.90;;;;;;5008254;28;20473;-60
2022/04/06 01:47:05;;;;;;;2.57;2.37;;;7.40;99.90;;;;;;5002370;28;20901;-59
2022/04/06 01:52:16;;;;;;;4.73;3.17;;;7.40;99.90;;;;;;5006566;28;20850;-59
2022/04/06 01:54:43;;;;;;;3.80;2.67;;;7.40;99.90;;;;;;5007197;28;20427;-59
2022/04/06 01:57:09;;;;;;;11.93;3.30;;;7.40;99.90;;;;;;5008153;28;20657;-59
2022/04/06 01:59:35;;;;;;;3.33;2.43;;;7.40;99.90;;;;;;4986432;28;20443;-59
2022/04/06 02:02:01;;;;;;;3.30;2.80;;;7.40;99.90;;;;;;5006752;28;20505;-60
2022/04/06 02:04:27;;;;;;;3.47;2.60;;;7.40;99.90;;;;;;5002938;28;20219;-59
2022/04/06 02:06:53;;;;;;;3.17;2.80;;;7.40;99.90;;;;;;5012506;28;20483;-59
2022/04/06 02:09:18;;;;;;;2.90;2.30;;;7.40;99.90;;;;;;5000817;28;20543;-59
2022/04/06 02:11:44;;;;;;;3.40;3.10;;;7.40;99.90;;;;;;5002323;28;20196;-59
2022/04/06 02:14:10;;;;;;;4.60;3.37;;;7.40;99.90;;;;;;5002571;28;20169;-59
2022/04/06 02:16:37;;;;;;;4.20;2.80;;;7.40;99.90;;;;;;5000055;28;20203;-59
2022/04/06 02:19:03;;;;;;;3.00;2.70;;;7.30;99.90;;;;;;5000884;28;22091;-59
2022/04/06 02:21:29;;;;;;;2.80;2.60;;;7.40;99.90;;;;;;5000065;28;20479;-59
2022/04/06 02:23:55;;;;;;;3.37;3.07;;;7.30;99.90;;;;;;5001018;28;20438;-59
2022/04/06 02:26:20;;;;;;;3.20;2.90;;;7.30;99.90;;;;;;5005988;28;20295;-59
2022/04/06 02:28:46;;;;;;;3.33;2.60;;;7.30;99.90;;;;;;5006297;28;20251;-60
2022/04/06 02:31:11;;;;;;;3.63;3.20;;;7.30;99.90;;;;;;5004514;28;20208;-60
2022/04/06 02:33:37;;;;;;;4.70;2.93;;;7.30;99.90;;;;;;5012497;28;20526;-60
2022/04/06 02:36:03;;;;;;;3.50;3.20;;;7.30;99.90;;;;;;4985277;28;20311;-59
2022/04/06 02:38:30;;;;;;;4.13;3.40;;;7.30;99.90;;;;;;5006773;28;20185;-61
2022/04/06 02:40:55;;;;;;;4.10;3.50;;;7.30;99.90;;;;;;5008105;28;20455;-60
2022/04/06 02:43:21;;;;;;;5.30;3.43;;;7.30;99.90;;;;;;5008825;28;20431;-60
2022/04/06 02:45:47;;;;;;;3.70;3.17;;;7.30;99.90;;;;;;4989648;28;20192;-59
2022/04/06 02:48:13;;;;;;;4.47;3.70;;;7.20;99.90;;;;;;5002747;28;20211;-60
2022/04/06 02:50:39;;;;;;;4.20;3.27;;;7.30;99.90;;;;;;5005934;28;20191;-60
2022/04/06 02:53:04;;;;;;;3.83;3.43;;;7.20;99.90;;;;;;5007642;28;20972;-60
2022/04/06 02:55:30;;;;;;;4.17;3.50;;;7.20;99.90;;;;;;4980684;28;20300;-60
2022/04/06 02:57:56;;;;;;;4.07;3.67;;;7.20;99.90;;;;;;4983186;28;20177;-60
2022/04/06 03:00:22;;;;;;;4.00;3.30;;;7.20;99.90;;;;;;5004942;28;20196;-60
2022/04/06 03:02:48;;;;;;;5.10;4.00;;;7.20;99.90;;;;;;5009055;28;20179;-60
2022/04/06 03:05:13;;;;;;;3.73;3.23;;;7.20;99.90;;;;;;4998095;28;20796;-60
2022/04/06 03:07:39;;;;;;;5.80;3.40;;;7.20;99.90;;;;;;5004665;28;20250;-60
2022/04/06 03:10:05;;;;;;;4.27;3.63;;;7.20;99.90;;;;;;5006331;28;20704;-60
2022/04/06 03:12:31;;;;;;;4.30;3.80;;;7.20;99.90;;;;;;5000863;28;20443;-60
2022/04/06 03:14:56;;;;;;;3.97;3.67;;;7.20;99.90;;;;;;4999018;28;20168;-60
2022/04/06 03:17:22;;;;;;;4.20;3.50;;;7.20;99.90;;;;;;5005905;28;20201;-60
2022/04/06 03:19:48;;;;;;;4.90;3.77;;;7.20;99.90;;;;;;5005443;28;20173;-60
2022/04/06 03:22:17;;;;;;;5.43;3.70;;;7.20;99.90;;;;;;5008896;28;20564;-59
2022/04/06 03:24:44;;;;;;;4.00;3.07;;;7.20;99.90;;;;;;4998528;28;20189;-60
2022/04/06 03:27:09;;;;;;;3.80;3.33;;;7.20;99.90;;;;;;4994259;28;20551;-60
2022/04/06 03:29:35;;;;;;;4.50;3.43;;;7.20;99.90;;;;;;5008758;28;20510;-59
2022/04/06 03:32:01;;;;;;;4.07;3.60;;;7.10;99.90;;;;;;5006836;28;20179;-59
2022/04/06 03:34:26;;;;;;;5.10;3.90;;;7.10;99.90;;;;;;4998807;28;20180;-60
2022/04/06 03:36:52;;;;;;;6.20;4.00;;;7.20;99.90;;;;;;5002873;28;20211;-60
2022/04/06 03:39:17;;;;;;;4.73;4.20;;;7.10;99.90;;;;;;4987831;28;20173;-59
2022/04/06 03:41:43;;;;;;;5.43;4.30;;;7.10;99.90;;;;;;5002714;28;20208;-61
2022/04/06 03:44:09;;;;;;;5.13;4.20;;;7.10;99.90;;;;;;5007470;28;20172;-59
2022/04/06 03:46:35;;;;;;;5.00;4.10;;;7.10;99.90;;;;;;4988440;28;20203;-59
2022/04/06 03:49:00;;;;;;;5.77;4.50;;;7.10;99.90;;;;;;4996587;28;20184;-60
2022/04/06 03:51:26;;;;;;;7.27;4.90;;;7.20;99.90;;;;;;5009902;28;20187;-60
2022/04/06 03:53:52;;;;;;;6.30;4.80;;;7.10;99.90;;;;;;5004342;28;20180;-58
2022/04/06 03:56:17;;;;;;;5.17;4.53;;;7.10;99.90;;;;;;4994592;28;20223;-57
2022/04/06 03:58:43;;;;;;;7.27;4.97;;;7.20;99.90;;;;;;4995677;28;20181;-58
2022/04/06 04:01:08;;;;;;;4.83;4.33;;;7.20;99.90;;;;;;5002413;28;21118;-58
2022/04/06 04:03:34;;;;;;;7.00;5.10;;;7.20;99.90;;;;;;4994957;28;20181;-59
2022/04/06 04:06:00;;;;;;;8.77;5.67;;;7.20;99.90;;;;;;4991270;28;20727;-60
2022/04/06 04:08:26;;;;;;;7.97;4.97;;;7.20;99.90;;;;;;4979447;28;20177;-60
2022/04/06 04:10:53;;;;;;;5.73;5.03;;;7.20;99.90;;;;;;4997852;28;20735;-60
2022/04/06 04:13:18;;;;;;;11.20;4.73;;;7.20;99.90;;;;;;4998059;28;20435;-60
2022/04/06 04:15:44;;;;;;;11.20;5.40;;;7.20;99.90;;;;;;4979641;28;20467;-58
2022/04/06 04:18:10;;;;;;;10.53;6.10;;;7.20;99.90;;;;;;4996840;28;20688;-59
2022/04/06 04:20:36;;;;;;;7.43;5.70;;;7.20;99.90;;;;;;4995717;28;20196;-59
2022/04/06 04:23:02;;;;;;;9.07;6.23;;;7.20;99.90;;;;;;4992460;28;20435;-60
2022/04/06 04:25:27;;;;;;;13.73;5.93;;;7.20;99.90;;;;;;4976857;28;20238;-59
2022/04/06 04:27:53;;;;;;;12.13;5.37;;;7.20;99.90;;;;;;5001531;28;20204;-60
2022/04/06 04:30:19;;;;;;;8.10;6.20;;;7.20;99.90;;;;;;5000004;28;20567;-59
2022/04/06 04:32:45;;;;;;;10.23;6.43;;;7.30;99.90;;;;;;5004008;28;20181;-59
2022/04/06 04:35:11;;;;;;;9.40;5.73;;;7.20;99.90;;;;;;4997358;28;20443;-60
2022/04/06 04:37:37;;;;;;;9.80;5.30;;;7.30;99.90;;;;;;4989017;28;20701;-58
2022/04/06 04:40:04;;;;;;;7.97;5.97;;;7.20;99.90;;;;;;4993239;28;20467;-59
2022/04/06 04:42:30;;;;;;;7.70;6.57;;;7.20;99.90;;;;;;4992324;28;20461;-59
2022/04/06 04:44:56;;;;;;;7.77;5.87;;;7.20;99.90;;;;;;4989041;28;21079;-59
2022/04/06 04:47:22;;;;;;;6.13;5.30;;;7.30;99.90;;;;;;4977410;28;20244;-60
2022/04/06 04:49:48;;;;;;;8.57;6.07;;;7.30;99.90;;;;;;4985002;28;20169;-59
2022/04/06 04:52:13;;;;;;;10.60;6.43;;;7.30;99.90;;;;;;4996070;28;20177;-59
2022/04/06 04:54:39;;;;;;;12.03;6.90;;;7.30;99.90;;;;;;5003316;28;20181;-58
2022/04/06 04:57:05;;;;;;;11.93;6.90;;;7.30;99.90;;;;;;4999818;28;20247;-58
2022/04/06 04:59:31;;;;;;;8.53;6.10;;;7.30;99.90;;;;;;4999067;28;20633;-60
2022/04/06 05:01:57;;;;;;;8.50;6.70;;;7.30;99.90;;;;;;4997979;28;20506;-59
2022/04/06 05:04:23;;;;;;;11.40;5.90;;;7.40;99.90;;;;;;5000014;28;21075;-60
2022/04/06 05:06:48;;;;;;;12.53;6.80;;;7.30;99.90;;;;;;4998920;28;20203;-60
2022/04/06 05:09:14;;;;;;;8.40;5.87;;;7.30;99.90;;;;;;5001386;28;20437;-61
2022/04/06 05:11:40;;;;;;;8.83;5.30;;;7.40;99.90;;;;;;5001898;28;20651;-59
2022/04/06 05:14:05;;;;;;;7.07;4.57;;;7.30;99.90;;;;;;4988937;28;20184;-58
2022/04/06 05:16:31;;;;;;;7.60;5.10;;;7.40;99.90;;;;;;5009245;28;20730;-60
2022/04/06 05:18:58;;;;;;;7.30;4.83;;;7.30;99.90;;;;;;5004660;28;20684;-60
2022/04/06 05:21:24;;;;;;;5.70;4.40;;;7.30;99.90;;;;;;5007862;28;20479;-59
2022/04/06 05:23:50;;;;;;;8.70;4.40;;;7.30;99.90;;;;;;5002558;28;20541;-58
2022/04/06 05:26:15;;;;;;;12.70;5.40;;;7.30;99.90;;;;;;5003169;28;21156;-60
2022/04/06 05:28:41;;;;;;;9.50;6.10;;;7.30;99.90;;;;;;4988849;28;20177;-59
2022/04/06 05:31:07;;;;;;;11.93;7.40;;;7.20;99.90;;;;;;4998781;28;20216;-59
2022/04/06 05:33:32;;;;;;;15.00;8.00;;;7.30;99.90;;;;;;5004934;28;20184;-58
2022/04/06 05:35:58;;;;;;;12.57;7.83;;;7.30;99.90;;;;;;5002904;28;20255;-59
2022/04/06 05:38:25;;;;;;;10.10;7.70;;;7.30;99.90;;;;;;5003131;28;20234;-59
2022/04/06 05:40:51;;;;;;;12.70;8.77;;;7.30;99.90;;;;;;5001640;28;20249;-59
2022/04/06 05:43:17;;;;;;;10.97;8.27;;;7.30;99.90;;;;;;4986645;28;20432;-58
2022/04/06 05:45:43;;;;;;;11.10;8.03;;;7.40;99.90;;;;;;5001513;28;20529;-59
2022/04/06 05:48:10;;;;;;;15.93;8.90;;;7.40;99.90;;;;;;5002555;28;20218;-59
2022/04/06 05:50:35;;;;;;;12.60;8.47;;;7.50;99.90;;;;;;5002600;28;20593;-59
2022/04/06 05:53:01;;;;;;;12.53;8.93;;;7.50;99.90;;;;;;5001863;28;20961;-59
2022/04/06 05:55:27;;;;;;;11.70;8.57;;;7.50;99.90;;;;;;5006863;28;20173;-59
2022/04/06 05:57:52;;;;;;;12.63;8.80;;;7.50;99.90;;;;;;5008520;28;20226;-60
2022/04/06 06:00:18;;;;;;;16.80;7.73;;;7.60;99.90;;;;;;5009985;28;20246;-59
2022/04/06 06:02:44;;;;;;;10.30;5.70;;;7.60;99.90;;;;;;4991640;28;20187;-59
2022/04/06 06:05:10;;;;;;;6.30;4.83;;;7.70;99.90;;;;;;5004617;28;20738;-59
2022/04/06 06:07:36;;;;;;;10.37;6.03;;;7.70;99.90;;;;;;5003809;28;20481;-59
2022/04/06 06:10:03;;;;;;;7.60;5.60;;;7.70;99.90;;;;;;5003718;28;21077;-59
2022/04/06 06:12:30;;;;;;;8.07;6.27;;;7.60;99.90;;;;;;5004389;28;20180;-59
2022/04/06 06:14:56;;;;;;;10.30;6.57;;;7.60;99.90;;;;;;5011029;28;20928;-59
2022/04/06 06:17:22;;;;;;;10.40;7.00;;;7.70;99.90;;;;;;5010059;28;20431;-59
2022/04/06 06:19:47;;;;;;;10.13;7.10;;;7.70;99.90;;;;;;4992769;28;20181;-59
2022/04/06 06:22:13;;;;;;;11.87;7.60;;;7.80;99.90;;;;;;5010387;28;20250;-60
2022/04/06 06:24:39;;;;;;;12.00;8.17;;;7.90;99.90;;;;;;5008645;28;20172;-60
2022/04/06 06:27:04;;;;;;;9.77;8.00;;;8.00;99.90;;;;;;5010421;28;20209;-59
2022/04/06 06:29:31;;;;;;;18.90;8.73;;;8.00;99.90;;;;;;5002669;28;20177;-60
2022/04/06 06:31:57;;;;;;;13.73;8.00;;;8.10;99.90;;;;;;5007199;28;20300;-59
2022/04/06 06:34:22;;;;;;;11.23;8.10;;;8.10;99.90;;;;;;4990183;28;20491;-59
2022/04/06 06:36:48;;;;;;;10.37;8.00;;;8.00;99.90;;;;;;4990528;28;20201;-59
2022/04/06 06:39:14;;;;;;;10.90;8.20;;;8.00;99.90;;;;;;5009758;28;20180;-60
2022/04/06 06:41:41;;;;;;;9.90;7.80;;;8.10;99.90;;;;;;5005485;28;20212;-59
2022/04/06 06:44:07;;;;;;;10.80;7.43;;;8.10;99.90;;;;;;5006223;28;20677;-59
2022/04/06 06:46:33;;;;;;;12.67;9.43;;;8.10;99.90;;;;;;5015683;28;20439;-59
2022/04/06 06:49:04;;;;;;;10.60;7.43;;;8.10;99.90;;;;;;5026582;28;20172;-59
2022/04/06 06:51:31;;;;;;;13.30;8.37;;;8.10;99.90;;;;;;5029247;28;20233;-60
2022/04/06 06:53:58;;;;;;;11.33;8.40;;;8.20;99.90;;;;;;5019093;28;20419;-58
2022/04/06 06:56:24;;;;;;;11.17;8.40;;;8.30;99.90;;;;;;5007446;28;20428;-58
2022/04/06 06:58:50;;;;;;;11.40;8.63;;;8.30;99.90;;;;;;5018578;28;20438;-59
2022/04/06 07:01:15;;;;;;;8.90;7.30;;;8.50;99.90;;;;;;5030368;28;20446;-59
2022/04/06 07:03:41;;;;;;;7.80;6.60;;;8.50;99.90;;;;;;5001647;28;20172;-60
2022/04/06 07:06:07;;;;;;;8.40;6.50;;;8.50;99.90;;;;;;5000865;28;20223;-59
2022/04/06 07:08:32;;;;;;;8.70;6.07;;;8.60;99.90;;;;;;5021252;28;20242;-58
2022/04/06 07:10:58;;;;;;;7.67;5.80;;;8.60;99.90;;;;;;4990107;28;20166;-59
2022/04/06 07:13:25;;;;;;;6.20;5.43;;;8.70;99.90;;;;;;4990677;28;20216;-59
2022/04/06 07:15:51;;;;;;;7.80;5.37;;;8.80;99.90;;;;;;5005221;28;20212;-59
2022/04/06 07:18:18;;;;;;;8.67;6.00;;;8.80;99.90;;;;;;5010465;28;20776;-60
2022/04/06 07:20:44;;;;;;;13.27;6.00;;;8.90;99.90;;;;;;5009394;28;20207;-59
2022/04/06 07:23:10;;;;;;;11.03;5.67;;;8.90;99.90;;;;;;4994574;28;20433;-60
2022/04/06 07:25:36;;;;;;;5.40;4.67;;;9.00;99.90;;;;;;4989385;28;20308;-58
2022/04/06 07:28:03;;;;;;;7.00;4.60;;;9.10;99.90;;;;;;4989348;28;20495;-59
2022/04/06 07:30:29;;;;;;;4.93;4.37;;;9.20;99.90;;;;;;4991417;28;20193;-59
2022/04/06 07:32:56;;;;;;;4.50;4.00;;;9.30;99.90;;;;;;5004322;28;20799;-59
2022/04/06 07:35:22;;;;;;;4.70;3.70;;;9.30;99.90;;;;;;5007902;28;20420;-58
2022/04/06 07:37:49;;;;;;;3.10;2.63;;;9.50;99.90;;;;;;5009872;28;20431;-59
2022/04/06 07:40:19;;;;;;;2.80;2.20;;;9.60;99.90;;;;;;5009602;28;20196;-60
2022/04/06 07:42:46;;;;;;;2.50;2.30;;;9.70;99.90;;;;;;4998278;28;20778;-60
2022/04/06 07:45:19;;;;;;;2.83;2.40;;;9.80;99.80;;;;;;4989281;28;20404;-59
2022/04/06 07:47:46;;;;;;;8.13;3.20;;;9.90;99.10;;;;;;5000991;28;20970;-59
2022/04/06 07:50:13;;;;;;;2.53;2.33;;;10.00;97.80;;;;;;5003001;28;20440;-59
2022/04/06 07:52:39;;;;;;;4.03;2.50;;;10.10;95.60;;;;;;4995687;28;20525;-60
2022/04/06 07:55:06;;;;;;;2.20;2.10;;;10.20;95.40;;;;;;5008897;28;20426;-64
2022/04/06 07:57:33;;;;;;;2.93;1.90;;;10.40;94.00;;;;;;5009568;28;20948;-59
2022/04/06 08:00:03;;;;;;;1.90;1.80;;;10.50;92.50;;;;;;4997646;28;20526;-59
2022/04/06 08:02:29;;;;;;;4.30;2.30;;;10.70;90.50;;;;;;4988397;28;20792;-59
2022/04/06 08:04:54;;;;;;;1.80;1.70;;;10.80;86.30;;;;;;4972421;28;20980;-59
2022/04/06 08:07:20;;;;;;;2.90;1.80;;;10.80;83.20;;;;;;5013662;28;20197;-59
2022/04/06 08:09:46;;;;;;;1.80;1.70;;;10.80;81.80;;;;;;5028937;28;20171;-60
2022/04/06 08:12:12;;;;;;;1.60;1.50;;;10.90;80.30;;;;;;5016169;28;20539;-58
2022/04/06 08:14:37;;;;;;;2.70;1.80;;;10.90;80.20;;;;;;5016132;28;20429;-59
2022/04/06 08:17:04;;;;;;;2.07;1.87;;;11.00;82.10;;;;;;4995174;28;20752;-59
2022/04/06 08:19:29;;;;;;;1.73;1.63;;;11.10;78.70;;;;;;4989488;28;20845;-60
2022/04/06 08:21:55;;;;;;;8.30;3.40;;;11.20;76.30;;;;;;4990410;28;20459;-59
2022/04/06 08:24:21;;;;;;;5.80;1.80;;;11.20;74.10;;;;;;5007270;28;20276;-59
2022/04/06 08:26:46;;;;;;;2.50;1.87;;;11.30;75.30;;;;;;4989200;28;20220;-60
2022/04/06 08:29:13;;;;;;;2.50;1.90;;;11.30;74.10;;;;;;4989507;28;20645;-59
2022/04/06 08:31:38;;;;;;;1.67;1.57;;;11.30;74.80;;;;;;4990416;28;20170;-59
2022/04/06 08:34:06;;;;;;;1.77;1.47;;;11.40;74.30;;;;;;4988773;28;20479;-60
2022/04/06 08:36:32;;;;;;;1.60;1.50;;;11.40;74.30;;;;;;4993082;28;20793;-59
2022/04/06 08:38:59;;;;;;;1.63;1.53;;;11.50;72.90;;;;;;5010199;28;20423;-60
2022/04/06 08:41:26;;;;;;;1.70;1.60;;;11.50;72.30;;;;;;5031524;28;20488;-60
2022/04/06 08:43:52;;;;;;;3.13;1.77;;;11.60;70.60;;;;;;5003335;28;20505;-59
2022/04/06 08:46:19;;;;;;;3.10;2.10;;;11.60;71.60;;;;;;5012645;28;20450;-59
2022/04/06 08:48:48;;;;;;;1.80;1.63;;;11.60;72.10;;;;;;5013478;28;20482;-60
2022/04/06 08:51:16;;;;;;;1.83;1.73;;;11.70;71.60;;;;;;5023258;28;20786;-59
2022/04/06 08:53:42;;;;;;;2.70;2.00;;;11.80;70.00;;;;;;5006012;28;20431;-60
2022/04/06 08:56:09;;;;;;;2.70;1.90;;;11.80;69.20;;;;;;5010948;28;20431;-60
2022/04/06 08:58:34;;;;;;;2.20;2.00;;;11.90;69.10;;;;;;5021110;28;20418;-60
2022/04/06 09:01:00;;;;;;;4.33;2.60;;;12.10;68.10;;;;;;5005604;28;20805;-60
2022/04/06 09:03:26;;;;;;;1.80;1.70;;;12.20;68.20;;;;;;5010347;28;20614;-60
2022/04/06 09:06:06;;;;;;;1.80;1.70;;;12.20;67.90;;;;;;5009951;28;20513;-60
2022/04/06 09:08:44;;;;;;;2.00;1.80;;;12.40;69.10;;;;;;5012386;28;20173;-59
2022/04/06 09:11:15;;;;;;;2.63;1.80;;;12.50;67.80;;;;;;4996449;28;20849;-61
2022/04/06 09:13:43;;;;;;;2.30;1.50;;;12.50;65.50;;;;;;5012851;28;20427;-60
2022/04/06 09:16:10;;;;;;;2.27;1.53;;;12.60;65.50;;;;;;4993835;28;20510;-60
2022/04/06 09:18:38;;;;;;;1.70;1.60;;;12.70;65.10;;;;;;4996343;28;20443;-60
2022/04/06 09:21:05;;;;;;;4.83;1.60;;;12.90;65.70;;;;;;4992376;28;20467;-60
2022/04/06 09:23:32;;;;;;;2.80;1.60;;;13.00;64.30;;;;;;5012919;28;20423;-60
2022/04/06 09:26:09;;;;;;;3.03;1.40;;;13.10;63.80;;;;;;5030453;28;20442;-60
2022/04/06 09:28:40;;;;;;;1.50;1.40;;;13.40;63.40;;;;;;4992879;28;20427;-61
2022/04/06 09:31:06;;;;;;;1.33;1.23;;;13.50;62.00;;;;;;5001418;28;20427;-60
2022/04/06 09:33:32;;;;;;;2.43;1.40;;;13.70;60.90;;;;;;5010272;28;20414;-60
2022/04/06 09:35:58;;;;;;;1.43;1.33;;;13.70;60.40;;;;;;5008681;28;20197;-60
2022/04/06 09:38:31;;;;;;;3.70;1.20;;;13.80;60.40;;;;;;4995733;28;20461;-60
2022/04/06 09:41:14;;;;;;;1.13;1.13;;;13.90;59.80;;;;;;5011219;28;20728;-60
2022/04/06 09:43:40;;;;;;;1.20;1.10;;;13.90;59.20;;;;;;5011838;28;20415;-60
2022/04/06 09:49:13;;;;;;;1.37;1.27;;;13.80;59.10;;;;;;5009820;28;20763;-60
2022/04/06 09:51:41;;;;;;;1.33;1.23;;;13.90;58.90;;;;;;5011672;28;20480;-60
2022/04/06 09:54:09;;;;;;;1.17;1.10;;;13.90;58.20;;;;;;5006496;28;20428;-60
2022/04/06 09:56:35;;;;;;;2.20;1.20;;;13.80;58.20;;;;;;5010687;28;20439;-60
2022/04/06 09:59:03;;;;;;;4.13;1.40;;;13.70;58.40;;;;;;5012962;28;20955;-59
2022/04/06 10:01:41;;;;;;;1.00;1.00;;;13.70;59.20;;;;;;5017943;28;20454;-62
2022/04/06 10:04:10;;;;;;;1.50;1.40;;;13.70;58.50;;;;;;5010492;28;20519;-60
2022/04/06 10:06:41;;;;;;;1.30;1.20;;;13.70;58.20;;;;;;5011770;28;20439;-57
2022/04/06 10:09:11;;;;;;;1.10;1.10;;;13.60;58.10;;;;;;5018739;28;20419;-57
2022/04/06 10:11:38;;;;;;;1.30;1.20;;;13.50;58.20;;;;;;5020789;28;20458;-60
2022/04/06 10:14:06;;;;;;;1.67;1.57;;;13.50;58.00;;;;;;5020607;28;21128;-59
2022/04/06 10:16:35;;;;;;;1.47;1.37;;;13.50;58.40;;;;;;5010062;28;20486;-62
2022/04/06 10:19:02;;;;;;;1.87;1.20;;;13.50;59.10;;;;;;5009742;28;20507;-60
2022/04/06 10:21:41;;;;;;;1.90;1.30;;;13.40;59.10;;;;;;5013724;28;20458;-59
2022/04/06 10:24:32;;;;;;;1.47;1.20;;;13.40;59.00;;;;;;5013261;28;20836;-59
2022/04/06 10:27:10;;;;;;;1.87;1.20;;;13.20;59.10;;;;;;4970022;28;20478;-60
2022/04/06 10:30:15;;;;;;;1.43;1.33;;;13.20;59.10;;;;;;5009900;28;20903;-61
2022/04/06 10:32:45;;;;;;;1.80;1.70;;;13.30;59.10;;;;;;4930182;29;20514;-59
2022/04/06 10:35:24;;;;;;;1.13;1.13;;;13.30;59.20;;;;;;4912678;29;20470;-59
2022/04/06 10:38:12;;;;;;;1.30;1.17;;;13.40;59.00;;;;;;4979874;28;20426;-62
2022/04/06 10:40:47;;;;;;;1.30;1.20;;;13.40;59.00;;;;;;4990940;28;20460;-59
2022/04/06 10:43:35;;;;;;;2.07;1.60;;;13.60;58.90;;;;;;4973715;28;20412;-60
2022/04/06 10:46:06;;;;;;;2.33;2.00;;;13.80;59.30;;;;;;5013566;28;20515;-59
2022/04/06 10:48:31;;;;;;;4.10;1.20;;;13.90;58.20;;;;;;4995360;28;20443;-60
2022/04/06 10:51:27;;;;;;;6.53;1.23;;;13.90;57.00;;;;;;4991334;28;20949;-61
2022/04/06 10:53:52;;;;;;;1.20;1.10;;;13.90;56.80;;;;;;5019240;28;20167;-61
2022/04/06 10:56:19;;;;;;;2.50;1.20;;;13.90;56.90;;;;;;5013268;28;20487;-60
2022/04/06 10:58:54;;;;;;;1.20;1.10;;;13.90;56.90;;;;;;5006435;28;21066;-61
2022/04/06 11:01:30;;;;;;;1.20;1.10;;;13.80;56.60;;;;;;5000537;28;20232;-60
2022/04/06 11:04:00;;;;;;;1.67;1.40;;;13.80;56.50;;;;;;4986530;28;20926;-60
2022/04/06 11:06:41;;;;;;;1.60;1.30;;;13.70;56.40;;;;;;5013518;28;20440;-60
2022/04/06 11:12:14;;;;;;;1.50;1.40;;;13.60;57.20;;;;;;5003392;28;20478;-60
2022/04/06 11:14:41;;;;;;;2.23;1.40;;;13.70;56.90;;;;;;5004233;28;20435;-61
2022/04/06 11:17:30;;;;;;;1.70;1.60;;;13.80;57.10;;;;;;4991729;28;20491;-62
2022/04/06 11:19:56;;;;;;;1.87;1.10;;;14.00;57.20;;;;;;5000802;28;20447;-62
2022/04/06 11:22:22;;;;;;;3.13;1.30;;;14.20;55.90;;;;;;5003103;28;20877;-62
2022/04/06 11:24:48;;;;;;;1.30;1.20;;;14.50;55.60;;;;;;4999895;28;20205;-61
2022/04/06 11:27:30;;;;;;;0.90;0.90;;;14.90;54.80;;;;;;5001856;28;20515;-61
2022/04/06 11:29:59;;;;;;;1.47;0.97;;;15.20;51.60;;;;;;5000975;28;20220;-62
2022/04/06 11:32:25;;;;;;;0.83;0.83;;;15.50;50.00;;;;;;4986918;28;20428;-61
2022/04/06 11:34:50;;;;;;;1.90;0.80;;;15.70;49.30;;;;;;5003795;28;20917;-61
2022/04/06 11:37:16;;;;;;;1.20;0.93;;;15.70;49.20;;;;;;5006860;28;20574;-62
2022/04/06 11:39:42;;;;;;;1.10;1.00;;;15.60;49.20;;;;;;5018695;28;20188;-62
2022/04/06 11:42:17;;;;;;;1.57;1.10;;;15.50;48.70;;;;;;5019680;28;20319;-62
2022/04/06 11:44:44;;;;;;;1.50;1.40;;;15.40;49.20;;;;;;4999969;28;20180;-62
2022/04/06 11:47:09;;;;;;;1.20;1.10;;;15.30;49.90;;;;;;5007593;28;20439;-62
2022/04/06 11:49:37;;;;;;;2.13;1.43;;;15.20;50.30;;;;;;5006616;28;20474;-62
2022/04/06 11:52:05;;;;;;;1.50;1.00;;;15.20;50.20;;;;;;5015009;28;20174;-61
2022/04/06 11:54:31;;;;;;;0.97;0.97;;;15.20;50.20;;;;;;5015567;28;20526;-62
2022/04/06 11:56:57;;;;;;;0.80;0.80;;;15.20;50.90;;;;;;5010116;28;20972;-63
2022/04/06 11:59:25;;;;;;;1.03;0.93;;;15.30;50.90;;;;;;5005657;28;20423;-63
2022/04/06 12:01:52;;;;;;;1.47;0.90;;;15.30;50.90;;;;;;5006170;28;20498;-61
2022/04/06 12:04:23;;;;;;;1.30;1.17;;;15.40;51.20;;;;;;5007909;28;20490;-61
2022/04/06 12:06:50;;;;;;;1.50;1.10;;;15.30;50.70;;;;;;5011312;28;20453;-62
2022/04/06 12:09:16;;;;;;;1.10;1.00;;;15.30;50.50;;;;;;5020064;28;20506;-62
2022/04/06 12:11:42;;;;;;;1.77;1.00;;;15.10;51.20;;;;;;5000860;28;21177;-62
2022/04/06 12:14:12;;;;;;;1.10;1.00;;;15.00;52.00;;;;;;5007366;28;20216;-62
2022/04/06 12:16:39;;;;;;;1.50;1.20;;;15.00;51.30;;;;;;5013485;28;20757;-63
2022/04/06 12:19:11;;;;;;;0.97;0.97;;;15.00;51.20;;;;;;5012016;28;20533;-62
2022/04/06 12:21:42;;;;;;;0.80;0.80;;;14.90;51.80;;;;;;5011047;28;20497;-61
2022/04/06 12:24:08;;;;;;;0.90;0.90;;;14.90;52.70;;;;;;4998431;28;20964;-61
2022/04/06 12:26:54;;;;;;;1.17;1.10;;;14.90;53.40;;;;;;4990913;28;20459;-61
2022/04/06 12:29:21;;;;;;;0.90;0.90;;;14.80;53.30;;;;;;4993408;28;20666;-61
2022/04/06 12:31:47;;;;;;;1.30;1.20;;;14.60;51.60;;;;;;4996859;28;20423;-61
2022/04/06 12:34:36;;;;;;;1.23;0.90;;;14.50;52.20;;;;;;5003483;28;20514;-61
2022/04/06 12:39:52;;;;;;;0.90;0.90;;;14.30;52.50;;;;;;4993727;28;20459;-62
2022/04/06 12:42:18;;;;;;;1.43;1.10;;;14.30;52.40;;;;;;4992190;28;20460;-61
2022/04/06 12:44:58;;;;;;;8.90;1.13;;;14.30;52.20;;;;;;5005978;28;20435;-62
2022/04/06 12:47:25;;;;;;;2.47;1.10;;;14.30;52.80;;;;;;5012750;28;20435;-61
2022/04/06 12:49:52;;;;;;;4.50;1.20;;;14.30;52.40;;;;;;5012525;28;20407;-61
2022/04/06 12:52:19;;;;;;;3.37;1.17;;;14.30;51.80;;;;;;5008382;28;20794;-61
2022/04/06 12:54:51;;;;;;;1.27;1.13;;;14.30;51.40;;;;;;5020308;28;20940;-61
2022/04/06 12:57:27;;;;;;;1.10;1.00;;;14.30;52.00;;;;;;5004582;28;20476;-61
2022/04/06 12:59:57;;;;;;;4.30;1.10;;;14.20;52.00;;;;;;5009184;28;20494;-61
2022/04/06 13:02:23;;;;;;;0.97;0.87;;;14.20;52.50;;;;;;5017923;28;21153;-65
2022/04/06 13:04:50;;;;;;;4.87;1.10;;;14.10;53.20;;;;;;5008981;28;20508;-63